createdAt,value
2022-10-02T00:00:02.698Z,7.40
2022-10-02T00:02:42.778Z,6.22
2022-10-02T00:05:15.841Z,5.43
2022-10-02T00:07:54.513Z,6.22
2022-10-02T00:10:36.286Z,4.70
2022-10-02T00:13:12.358Z,4.87
2022-10-02T00:15:42.406Z,3.75
2022-10-02T00:18:16.103Z,5.22
2022-10-02T00:20:58.115Z,3.95
2022-10-02T00:23:36.735Z,3.95
2022-10-02T00:26:07.593Z,3.92
2022-10-02T00:29:01.378Z,1.50
2022-10-02T00:31:41.775Z,5.43
2022-10-02T00:34:30.906Z,4.30
2022-10-02T00:37:19.771Z,2.90
2022-10-02T00:39:55.871Z,4.40
2022-10-02T00:42:44.177Z,5.15
2022-10-02T00:45:39.048Z,4.57
2022-10-02T00:48:27.264Z,3.40
2022-10-02T00:51:03.219Z,2.08
2022-10-02T00:53:33.049Z,7.05
2022-10-02T00:56:25.037Z,3.10
2022-10-02T00:59:13.739Z,3.88
2022-10-02T01:01:53.390Z,1.58
2022-10-02T01:04:40.631Z,1.10
2022-10-02T01:07:12.854Z,1.92
2022-10-02T01:09:41.971Z,1.95
2022-10-02T01:12:10.218Z,0.70
2022-10-02T01:14:39.993Z,1.27
2022-10-02T01:17:24.363Z,2.25
2022-10-02T01:19:51.995Z,2.28
2022-10-02T01:22:46.649Z,1.33
2022-10-02T01:25:16.481Z,2.47
2022-10-02T01:27:44.129Z,4.57
2022-10-02T01:30:15.687Z,2.63
2022-10-02T01:32:56.229Z,1.30
2022-10-02T01:35:27.960Z,3.10
2022-10-02T01:37:55.806Z,4.13
2022-10-02T01:40:29.627Z,4.95
2022-10-02T01:43:00.703Z,6.03
2022-10-02T01:45:56.444Z,4.38
2022-10-02T01:48:35.448Z,2.53
2022-10-02T01:51:46.772Z,5.38
2022-10-02T01:54:34.933Z,3.85
2022-10-02T01:57:20.156Z,2.30
2022-10-02T01:59:56.477Z,5.82
2022-10-02T02:02:33.968Z,4.65
2022-10-02T02:05:25.168Z,3.30
2022-10-02T02:08:08.300Z,3.80
2022-10-02T02:10:53.566Z,1.85
2022-10-02T02:13:34.505Z,7.32
2022-10-02T02:16:33.922Z,2.83
2022-10-02T02:19:04.303Z,6.30
2022-10-02T02:21:35.920Z,6.28
2022-10-02T02:24:10.203Z,5.20
2022-10-02T02:26:39.319Z,5.18
2022-10-02T02:29:08.831Z,5.38
2022-10-02T02:31:59.076Z,6.60
2022-10-02T02:34:33.778Z,5.47
2022-10-02T02:37:07.738Z,4.68
2022-10-02T02:39:52.773Z,6.55
2022-10-02T02:42:26.098Z,9.02
2022-10-02T02:45:14.271Z,6.15
2022-10-02T02:47:59.992Z,4.88
2022-10-02T02:50:29.958Z,6.88
2022-10-02T02:53:05.077Z,10.35
2022-10-02T02:55:42.766Z,6.82
2022-10-02T02:58:35.146Z,7.50
2022-10-02T03:01:02.714Z,6.43
2022-10-02T03:03:29.855Z,12.40
2022-10-02T03:06:03.437Z,7.35
2022-10-02T03:08:35.487Z,10.23
2022-10-02T03:11:25.281Z,8.45
2022-10-02T03:14:08.032Z,6.88
2022-10-02T03:16:58.498Z,4.53
2022-10-02T03:19:40.141Z,6.72
2022-10-02T03:22:30.448Z,5.18
2022-10-02T03:25:19.740Z,6.35
2022-10-02T03:27:53.233Z,9.73
2022-10-02T03:30:22.057Z,7.15
2022-10-02T03:32:56.414Z,5.10
2022-10-02T03:35:24.964Z,5.15
2022-10-02T03:37:59.063Z,5.50
2022-10-02T03:40:27.527Z,5.60
2022-10-02T03:42:58.463Z,7.43
2022-10-02T03:45:49.575Z,5.57
2022-10-02T03:48:15.040Z,4.40
2022-10-02T03:50:42.157Z,5.97
2022-10-02T03:53:25.103Z,5.45
2022-10-02T03:56:06.547Z,4.15
2022-10-02T03:58:34.580Z,6.07
2022-10-02T04:01:21.080Z,9.70
2022-10-02T04:03:52.757Z,7.93
2022-10-02T04:06:28.360Z,6.75
2022-10-02T04:09:04.856Z,8.88
2022-10-02T04:11:37.320Z,6.68
2022-10-02T04:14:09.734Z,10.75
2022-10-02T04:19:33.707Z,5.28
2022-10-02T04:22:24.882Z,13.30
2022-10-02T04:25:00.429Z,4.53
2022-10-02T04:27:37.428Z,5.55
2022-10-02T04:30:08.188Z,7.65
2022-10-02T04:32:36.939Z,4.45
2022-10-02T04:35:14.741Z,7.20
2022-10-02T04:37:50.764Z,5.20
2022-10-02T04:40:43.772Z,16.20
2022-10-02T04:43:11.116Z,14.32
2022-10-02T04:45:55.861Z,12.02
2022-10-02T04:48:31.870Z,7.93
2022-10-02T04:51:25.636Z,7.72
2022-10-02T04:54:20.595Z,8.40
2022-10-02T04:57:05.706Z,9.90
2022-10-02T04:59:57.125Z,6.18
2022-10-02T05:02:36.081Z,6.20
2022-10-02T05:05:09.219Z,6.05
2022-10-02T05:08:03.658Z,3.33
2022-10-02T05:10:36.484Z,7.22
2022-10-02T05:13:12.535Z,2.95
2022-10-02T05:16:07.991Z,4.93
2022-10-02T05:18:50.400Z,5.18
2022-10-02T05:21:38.631Z,4.32
2022-10-02T05:24:21.433Z,4.38
2022-10-02T05:30:12.965Z,3.87
2022-10-02T05:32:45.631Z,5.60
2022-10-02T05:35:26.985Z,4.88
2022-10-02T05:38:31.542Z,8.30
2022-10-02T05:41:18.272Z,6.53
2022-10-02T05:43:56.475Z,6.13
2022-10-02T05:46:30.151Z,7.38
2022-10-02T05:49:14.975Z,9.05
2022-10-02T05:52:01.795Z,8.18
2022-10-02T05:55:01.792Z,4.70
2022-10-02T05:58:10.283Z,7.63
2022-10-02T06:01:06.397Z,6.85
2022-10-02T06:03:45.727Z,4.38
2022-10-02T06:06:46.517Z,9.18
2022-10-02T06:09:31.836Z,6.35
2022-10-02T06:12:14.807Z,6.18
2022-10-02T06:14:59.313Z,4.53
2022-10-02T06:17:34.971Z,6.88
2022-10-02T06:20:05.027Z,11.00
2022-10-02T06:22:50.973Z,7.55
2022-10-02T06:25:28.649Z,7.50
2022-10-02T06:28:01.734Z,11.00
2022-10-02T06:30:33.024Z,7.40
2022-10-02T06:33:26.777Z,5.28
2022-10-02T06:35:54.139Z,9.13
2022-10-02T06:38:35.647Z,5.63
2022-10-02T06:41:45.756Z,9.20
2022-10-02T06:44:22.985Z,9.00
2022-10-02T06:47:08.436Z,7.32
2022-10-02T06:50:05.006Z,9.13
2022-10-02T06:52:53.631Z,7.40
2022-10-02T06:55:43.716Z,4.75
2022-10-02T06:58:26.968Z,8.05
2022-10-02T07:00:59.267Z,4.13
2022-10-02T07:04:04.355Z,6.93
2022-10-02T07:06:53.320Z,9.40
2022-10-02T07:09:45.154Z,6.03
2022-10-02T07:12:40.377Z,7.68
2022-10-02T07:15:32.612Z,6.20
2022-10-02T07:18:19.662Z,5.88
2022-10-02T07:21:08.025Z,4.85
2022-10-02T07:24:02.570Z,10.68
2022-10-02T07:26:43.215Z,6.00
2022-10-02T07:29:16.952Z,8.45
2022-10-02T07:32:17.690Z,7.95
2022-10-02T07:35:05.785Z,10.13
2022-10-02T07:37:50.576Z,9.65
2022-10-02T07:41:07.366Z,7.35
2022-10-02T07:44:04.248Z,10.82
2022-10-02T07:46:37.421Z,7.82
2022-10-02T07:49:24.553Z,5.57
2022-10-02T07:52:22.884Z,8.40
2022-10-02T07:55:05.045Z,6.43
2022-10-02T07:57:46.119Z,4.68
2022-10-02T08:00:24.162Z,7.03
2022-10-02T08:03:12.702Z,5.50
2022-10-02T08:05:49.672Z,7.07
2022-10-02T08:08:21.288Z,6.18
2022-10-02T08:10:56.528Z,4.83
2022-10-02T08:13:39.929Z,7.63
2022-10-02T08:16:09.286Z,3.78
2022-10-02T08:18:49.186Z,6.30
2022-10-02T08:21:23.185Z,5.15
2022-10-02T08:24:10.129Z,4.55
2022-10-02T08:26:46.393Z,8.18
2022-10-02T08:29:26.637Z,8.40
2022-10-02T08:31:54.564Z,6.68
2022-10-02T08:34:23.830Z,6.05
2022-10-02T08:37:00.524Z,5.82
2022-10-02T08:39:30.423Z,9.07
2022-10-02T08:42:33.364Z,5.82
2022-10-02T08:45:34.337Z,9.05
2022-10-02T08:48:26.800Z,8.15
2022-10-02T08:51:15.153Z,5.75
2022-10-02T08:54:00.753Z,4.43
2022-10-02T08:56:59.666Z,7.35
2022-10-02T08:59:42.483Z,5.75
2022-10-02T09:02:51.135Z,5.25
2022-10-02T09:05:45.331Z,3.72
2022-10-02T09:08:37.008Z,4.55
2022-10-02T09:11:37.400Z,5.35
2022-10-02T09:14:26.192Z,8.07
2022-10-02T09:17:13.813Z,7.60
2022-10-02T09:20:05.015Z,5.45
2022-10-02T09:22:50.902Z,6.25
2022-10-02T09:25:55.406Z,3.65
2022-10-02T09:28:34.956Z,4.60
2022-10-02T09:31:40.394Z,4.55
2022-10-02T09:34:26.598Z,4.53
2022-10-02T09:37:06.786Z,6.10
2022-10-02T09:39:51.744Z,8.80
2022-10-02T09:42:43.613Z,4.88
2022-10-02T09:45:37.963Z,6.43
2022-10-02T09:48:24.007Z,7.90
2022-10-02T09:51:28.763Z,6.18
2022-10-02T09:54:15.507Z,4.05
2022-10-02T09:57:19.884Z,3.88
2022-10-02T10:00:13.038Z,4.55
2022-10-02T10:02:49.359Z,6.63
2022-10-02T10:05:39.439Z,6.30
2022-10-02T10:08:22.426Z,6.22
2022-10-02T10:11:29.260Z,4.60
2022-10-02T10:14:24.741Z,5.65
2022-10-02T10:17:39.362Z,10.63
2022-10-02T10:20:23.082Z,6.20
2022-10-02T10:23:12.607Z,7.55
2022-10-02T10:26:15.342Z,7.68
2022-10-02T10:29:27.006Z,5.32
2022-10-02T10:31:56.989Z,7.68
2022-10-02T10:34:32.725Z,6.75
2022-10-02T10:37:29.421Z,3.47
2022-10-02T10:40:15.740Z,5.00
2022-10-02T10:43:06.984Z,4.82
2022-10-02T10:45:57.229Z,8.82
2022-10-02T10:48:27.695Z,5.68
2022-10-02T10:51:01.027Z,5.35
2022-10-02T10:53:51.668Z,5.15
2022-10-02T10:56:37.194Z,5.97
2022-10-02T10:59:32.442Z,6.32
2022-10-02T11:02:18.398Z,5.15
2022-10-02T11:05:07.744Z,3.45
2022-10-02T11:07:43.024Z,8.88
2022-10-02T11:10:38.472Z,4.28
2022-10-02T11:13:35.795Z,5.63
2022-10-02T11:16:06.688Z,4.07
2022-10-02T11:18:43.016Z,6.25
2022-10-02T11:21:29.096Z,4.35
2022-10-02T11:24:06.217Z,5.85
2022-10-02T11:26:54.929Z,7.60
2022-10-02T11:29:37.024Z,3.92
2022-10-02T11:32:23.254Z,2.55
2022-10-02T11:35:01.992Z,5.60
2022-10-02T11:37:31.805Z,5.47
2022-10-02T11:39:58.849Z,4.80
2022-10-02T11:42:56.717Z,3.80
2022-10-02T11:46:01.514Z,3.17
2022-10-02T11:49:00.053Z,2.97
2022-10-02T11:51:59.595Z,4.88
2022-10-02T11:54:56.471Z,4.57
2022-10-02T11:57:52.192Z,2.63
2022-10-02T12:00:55.636Z,2.08
2022-10-02T12:03:49.182Z,2.40
2022-10-02T12:06:54.131Z,2.30
2022-10-02T12:10:00.912Z,3.78
2022-10-02T12:13:07.429Z,3.03
2022-10-02T12:15:48.982Z,2.72
2022-10-02T12:18:39.500Z,2.63
2022-10-02T12:21:40.421Z,4.25
2022-10-02T12:24:35.341Z,9.50
2022-10-02T12:27:37.793Z,4.80
2022-10-02T12:30:36.271Z,6.05
2022-10-02T12:33:13.599Z,4.40
2022-10-02T12:36:16.193Z,5.85
2022-10-02T12:39:16.733Z,5.03
2022-10-02T12:42:06.643Z,2.70
2022-10-02T12:45:12.010Z,4.63
2022-10-02T12:48:10.891Z,5.05
2022-10-02T12:51:12.738Z,5.43
2022-10-02T12:54:14.731Z,4.13
2022-10-02T12:57:53.911Z,3.97
2022-10-02T13:00:43.520Z,4.45
2022-10-02T13:03:33.586Z,4.28
2022-10-02T13:06:18.763Z,7.13
2022-10-02T13:09:10.957Z,3.78
2022-10-02T13:11:38.390Z,3.60
2022-10-02T13:14:30.131Z,3.95
2022-10-02T13:17:09.834Z,6.90
2022-10-02T13:20:15.036Z,4.68
2022-10-02T13:23:09.466Z,4.00
2022-10-02T13:25:57.458Z,4.57
2022-10-02T13:28:48.539Z,6.75
2022-10-02T13:31:44.474Z,8.15
2022-10-02T13:34:34.116Z,4.57
2022-10-02T13:37:38.498Z,4.78
2022-10-02T13:40:42.615Z,7.15
2022-10-02T13:43:31.699Z,4.78
2022-10-02T13:53:08.539Z,5.47
2022-10-02T13:56:06.974Z,2.97
2022-10-02T13:58:36.863Z,10.55
2022-10-02T14:01:15.486Z,4.95
2022-10-02T14:04:01.067Z,4.43
2022-10-02T14:06:55.986Z,3.47
2022-10-02T14:09:59.836Z,4.28
2022-10-02T14:13:06.554Z,5.85
2022-10-02T14:16:02.515Z,6.18
2022-10-02T14:19:01.249Z,8.43
2022-10-02T14:21:38.839Z,2.33
2022-10-02T14:25:04.340Z,5.68
2022-10-02T14:27:50.448Z,6.13
2022-10-02T14:30:23.472Z,4.72
2022-10-02T14:33:02.439Z,4.63
2022-10-02T14:35:51.995Z,4.13
2022-10-02T14:38:22.193Z,3.63
2022-10-02T14:41:02.268Z,3.22
2022-10-02T14:43:38.360Z,7.05
2022-10-02T14:46:24.684Z,3.03
2022-10-02T14:49:00.776Z,2.92
2022-10-02T14:51:48.301Z,7.47
2022-10-02T14:54:34.640Z,6.20
2022-10-02T14:57:20.283Z,3.63
2022-10-02T14:59:56.352Z,7.55
2022-10-02T15:02:50.735Z,4.30
2022-10-02T15:05:45.511Z,7.07
2022-10-02T15:08:20.415Z,3.78
2022-10-02T15:10:49.498Z,2.53
2022-10-02T15:13:46.605Z,4.90
2022-10-02T15:16:45.858Z,1.95
2022-10-02T15:19:30.554Z,4.07
2022-10-02T15:22:03.372Z,4.05
2022-10-02T15:24:32.140Z,2.15
2022-10-02T15:27:14.763Z,2.33
2022-10-02T15:30:29.143Z,3.25
2022-10-02T15:33:01.821Z,7.35
2022-10-02T15:35:39.491Z,2.80
2022-10-02T15:38:39.831Z,6.28
2022-10-02T15:41:19.830Z,8.10
2022-10-02T15:44:25.978Z,6.75
2022-10-02T15:47:45.485Z,4.75
2022-10-02T15:50:34.698Z,4.00
2022-10-02T15:53:48.371Z,8.18
2022-10-02T15:56:28.122Z,4.78
2022-10-02T15:59:23.754Z,4.25
2022-10-02T16:02:03.933Z,3.55
2022-10-02T16:04:40.457Z,3.67
2022-10-02T16:07:32.968Z,1.95
2022-10-02T16:10:17.896Z,2.53
2022-10-02T16:13:24.672Z,3.67
2022-10-02T16:16:22.973Z,6.05
2022-10-02T16:19:16.081Z,4.07
2022-10-02T16:22:17.976Z,5.57
2022-10-02T16:25:13.222Z,4.40
2022-10-02T16:28:02.397Z,4.15
2022-10-02T16:30:56.304Z,1.88
2022-10-02T16:33:51.649Z,4.90
2022-10-02T16:36:31.928Z,3.20
2022-10-02T16:39:26.633Z,4.38
2022-10-02T16:42:02.552Z,6.90
2022-10-02T16:45:05.288Z,39.58
2022-10-02T16:48:07.822Z,42.50
2022-10-02T16:51:15.110Z,43.05
2022-10-02T16:53:51.861Z,15.50
2022-10-02T16:56:40.717Z,14.77
2022-10-02T16:59:17.597Z,11.20
2022-10-02T17:02:16.470Z,8.00
2022-10-02T17:05:04.492Z,10.05
2022-10-02T17:07:38.655Z,6.72
2022-10-02T17:10:33.836Z,4.63
2022-10-02T17:13:27.551Z,3.00
2022-10-02T17:15:59.144Z,4.13
2022-10-02T17:18:55.886Z,5.38
2022-10-02T17:21:29.551Z,5.18
2022-10-02T17:24:34.458Z,3.20
2022-10-02T17:27:12.011Z,5.25
2022-10-02T17:29:53.306Z,6.88
2022-10-02T17:32:48.537Z,1.52
2022-10-02T17:35:43.971Z,2.35
2022-10-02T17:38:37.435Z,4.30
2022-10-02T17:41:29.531Z,5.60
2022-10-02T17:44:26.705Z,2.33
2022-10-02T17:47:10.997Z,4.35
2022-10-02T17:49:59.842Z,5.35
2022-10-02T17:53:02.600Z,5.47
2022-10-02T17:56:20.003Z,1.85
2022-10-02T17:59:18.605Z,4.07
2022-10-02T18:02:24.363Z,2.42
2022-10-02T18:05:24.306Z,4.97
2022-10-02T18:08:12.841Z,3.95
2022-10-02T18:11:03.741Z,2.88
2022-10-02T18:13:49.793Z,2.58
2022-10-02T18:16:45.170Z,3.63
2022-10-02T18:19:24.069Z,6.28
2022-10-02T18:22:16.300Z,4.80
2022-10-02T18:25:12.470Z,3.88
2022-10-02T18:28:21.628Z,2.92
2022-10-02T18:30:54.891Z,4.03
2022-10-02T18:34:06.977Z,3.78
2022-10-02T18:37:01.254Z,2.47
2022-10-02T18:39:51.796Z,4.07
2022-10-02T18:42:51.323Z,3.72
2022-10-02T18:45:42.852Z,3.08
2022-10-02T18:48:31.589Z,3.60
2022-10-02T18:51:17.657Z,5.50
2022-10-02T18:53:53.968Z,2.30
2022-10-02T18:56:56.160Z,2.70
2022-10-02T19:00:00.531Z,5.87
2022-10-02T19:02:40.664Z,5.38
2022-10-02T19:05:41.826Z,5.07
2022-10-02T19:08:29.303Z,2.47
2022-10-02T19:10:56.920Z,3.78
2022-10-02T19:13:29.091Z,5.25
2022-10-02T19:16:01.867Z,2.58
2022-10-02T19:18:31.172Z,2.58
2022-10-02T19:21:06.834Z,3.25
2022-10-02T19:24:15.128Z,3.22
2022-10-02T19:26:52.006Z,5.57
2022-10-02T19:29:42.083Z,3.22
2022-10-02T19:32:19.187Z,2.22
2022-10-02T19:34:52.105Z,4.70
2022-10-02T19:37:19.647Z,7.20
2022-10-02T19:39:56.287Z,2.92
2022-10-02T19:42:28.869Z,3.95
2022-10-02T19:47:49.631Z,2.80
2022-10-02T19:50:23.357Z,1.10
2022-10-02T19:53:06.777Z,3.08
2022-10-02T19:55:38.939Z,3.22
2022-10-02T19:58:44.543Z,2.90
2022-10-02T20:01:25.432Z,4.55
2022-10-02T20:03:58.402Z,2.15
2022-10-02T20:06:32.031Z,2.92
2022-10-02T20:09:15.079Z,1.27
2022-10-02T20:12:01.630Z,2.25
2022-10-02T20:14:57.490Z,2.70
2022-10-02T20:17:25.052Z,3.30
2022-10-02T20:20:02.764Z,4.70
2022-10-02T20:23:04.342Z,2.78
2022-10-02T20:25:42.322Z,4.18
2022-10-02T20:28:41.639Z,1.88
2022-10-02T20:31:19.360Z,1.85
2022-10-02T20:33:58.129Z,2.33
2022-10-02T20:36:33.069Z,5.10
2022-10-02T20:39:09.924Z,2.80
2022-10-02T20:41:52.343Z,1.10
2022-10-02T20:44:20.838Z,1.67
2022-10-02T20:47:06.266Z,2.30
2022-10-02T20:50:12.516Z,3.83
2022-10-02T20:53:07.207Z,2.80
2022-10-02T20:55:53.817Z,2.22
2022-10-02T20:58:55.027Z,2.05
2022-10-02T21:01:55.819Z,5.22
2022-10-02T21:04:26.553Z,2.30
2022-10-02T21:07:35.233Z,1.88
2022-10-02T21:10:23.248Z,3.85
2022-10-02T21:13:08.428Z,4.10
2022-10-02T21:16:07.694Z,4.13
2022-10-02T21:18:39.582Z,6.18
2022-10-02T21:21:25.349Z,3.90
2022-10-02T21:24:43.413Z,1.88
2022-10-02T21:27:32.012Z,2.47
2022-10-02T21:30:11.985Z,1.48
2022-10-02T21:33:24.748Z,3.40
2022-10-02T21:36:31.408Z,3.38
2022-10-02T21:38:58.358Z,4.35
2022-10-02T21:41:58.193Z,4.13
2022-10-02T21:44:59.239Z,3.67
2022-10-02T21:48:06.845Z,4.18
2022-10-02T21:50:40.283Z,2.25
2022-10-02T21:53:51.191Z,2.47
2022-10-02T21:56:38.721Z,1.73
2022-10-02T21:59:29.825Z,2.45
2022-10-02T22:02:28.245Z,3.47
2022-10-02T22:05:01.396Z,1.08
2022-10-02T22:07:39.960Z,2.20
2022-10-02T22:10:27.597Z,3.45
2022-10-02T22:13:15.401Z,2.30
2022-10-02T22:16:23.323Z,0.52
2022-10-02T22:19:08.507Z,0.80
2022-10-02T22:21:49.948Z,1.88
2022-10-02T22:24:35.521Z,3.90
2022-10-02T22:27:45.512Z,1.35
2022-10-02T22:30:50.975Z,1.77
2022-10-02T22:33:40.467Z,2.25
2022-10-02T22:36:32.171Z,3.40
2022-10-02T22:39:31.490Z,2.65
2022-10-02T22:42:26.753Z,2.15
2022-10-02T22:44:59.962Z,2.13
2022-10-02T22:47:30.319Z,3.28
2022-10-02T22:50:13.373Z,2.10
2022-10-02T22:52:59.662Z,1.85
2022-10-02T22:55:34.307Z,3.58
2022-10-02T22:58:12.458Z,3.40
2022-10-02T23:01:04.484Z,2.70
2022-10-02T23:03:47.982Z,1.30
2022-10-02T23:06:22.954Z,2.50
2022-10-02T23:08:58.660Z,3.45
2022-10-02T23:11:32.580Z,3.95
2022-10-02T23:14:07.313Z,3.58
2022-10-02T23:16:49.140Z,1.95
2022-10-02T23:19:32.712Z,2.28
2022-10-02T23:22:05.255Z,2.72
2022-10-02T23:27:03.269Z,1.05
2022-10-02T23:29:52.226Z,1.63
2022-10-02T23:32:28.101Z,1.45
2022-10-02T23:35:14.596Z,2.22
2022-10-02T23:38:00.479Z,0.77
2022-10-02T23:40:52.812Z,1.60
2022-10-02T23:43:28.433Z,0.82
2022-10-02T23:46:10.994Z,2.75
2022-10-02T23:48:39.297Z,1.55
2022-10-02T23:51:28.112Z,1.67
2022-10-02T23:54:19.950Z,1.25
2022-10-02T23:56:50.000Z,1.88
2022-10-02T23:59:38.398Z,1.10
